Time;durP1;ratioP1;P1;durP2;ratioP2;P2;SDS_P1;SDS_P2;PMS_P1;PMS_P2;Temp;Humidity;BMP_temperature;BMP_pressure;BME280_temperature;BME280_humidity;BME280_pressure;Samples;Min_cycle;Max_cycle;Signal;HPM_P1;HPM_P2
2023/11/22 00:01:36;;;;;;;48.78;35.72;;;;;;;10.73;100.00;102633.16;4989579;28;20042;-73
2023/11/22 00:04:02;;;;;;;44.80;33.58;;;;;;;10.31;100.00;102568.13;4988002;28;20069;-73
2023/11/22 00:06:29;;;;;;;47.38;33.88;;;;;;;10.74;100.00;102660.31;4971947;28;20034;-74
2023/11/22 00:08:55;;;;;;;43.38;32.63;;;;;;;10.83;100.00;102577.34;4971702;28;20066;-74
2023/11/22 00:11:20;;;;;;;41.28;31.92;;;;;;;10.98;100.00;102614.84;4989280;28;20428;-74
2023/11/22 00:13:46;;;;;;;46.72;34.35;;;;;;;10.87;100.00;102624.91;4986877;28;20117;-72
2023/11/22 00:16:11;;;;;;;43.47;33.65;;;;;;;10.50;100.00;102569.22;4988840;28;20085;-73
2023/11/22 00:18:40;;;;;;;43.50;32.15;;;;;;;10.89;100.00;102638.50;4988699;28;20050;-73
2023/11/22 00:21:06;;;;;;;43.65;33.38;;;;;;;10.38;100.00;102574.13;4988877;28;20030;-72
2023/11/22 00:23:32;;;;;;;47.28;32.88;;;;;;;10.62;100.00;102610.09;4971634;28;20042;-73
2023/11/22 00:25:58;;;;;;;44.75;32.70;;;;;;;10.58;100.00;102599.88;4969691;28;20389;-73
2023/11/22 00:28:24;;;;;;;46.00;32.53;;;;;;;10.62;100.00;102627.91;4989040;28;20037;-73
2023/11/22 00:30:49;;;;;;;48.65;36.92;;;;;;;10.91;100.00;102674.16;4971757;28;20436;-73
2023/11/22 00:33:15;;;;;;;47.95;35.58;;;;;;;10.88;100.00;102685.13;4988530;28;20511;-73
2023/11/22 00:35:40;;;;;;;46.92;34.42;;;;;;;10.85;100.00;102704.59;4988508;28;20038;-73
2023/11/22 00:38:06;;;;;;;46.17;33.40;;;;;;;10.53;100.00;102648.16;4988325;28;20030;-73
2023/11/22 00:40:31;;;;;;;48.13;33.47;;;;;;;10.30;100.00;102617.25;4988778;28;20429;-73
2023/11/22 00:42:58;;;;;;;43.83;32.30;;;;;;;10.33;100.00;102631.72;4988954;28;20034;-73
2023/11/22 00:45:24;;;;;;;47.90;33.83;;;;;;;10.31;100.00;102633.38;4988809;28;20030;-73
2023/11/22 00:47:50;;;;;;;43.13;31.08;;;;;;;10.69;100.00;102693.34;4971286;28;20415;-73
2023/11/22 00:50:19;;;;;;;42.60;30.35;;;;;;;10.37;100.00;102625.84;4988397;28;20030;-73
2023/11/22 00:52:46;;;;;;;40.80;29.83;;;;;;;10.16;100.00;102598.38;4987108;28;20038;-73
2023/11/22 00:55:12;;;;;;;40.47;29.40;;;;;;;10.41;100.00;102640.31;4988894;28;20057;-72
2023/11/22 00:57:37;;;;;;;40.30;28.58;;;;;;;10.39;100.00;102637.75;4987448;28;20508;-74
2023/11/22 01:00:05;;;;;;;39.05;28.83;;;;;;;10.87;100.00;102723.28;4989020;28;20030;-74
2023/11/22 01:02:30;;;;;;;39.72;29.15;;;;;;;10.56;100.00;102672.78;4971252;28;20505;-74
2023/11/22 01:04:56;;;;;;;38.35;28.00;;;;;;;10.63;100.00;102687.28;4988475;28;20033;-75
2023/11/22 01:07:21;;;;;;;36.80;28.00;;;;;;;10.51;100.00;102666.75;4987396;28;20034;-74
2023/11/22 01:09:47;;;;;;;35.25;26.67;;;;;;;10.62;100.00;102675.41;4988381;28;21044;-73
2023/11/22 01:12:12;;;;;;;39.05;28.20;;;;;;;10.32;100.00;102618.13;4988609;28;20417;-73
2023/11/22 01:14:39;;;;;;;36.67;28.83;;;;;;;10.32;100.00;102407.09;4971435;28;20424;-74
2023/11/22 01:17:05;;;;;;;39.95;28.20;;;;;;;10.73;100.00;102480.50;4987065;28;20030;-73
2023/11/22 01:19:30;;;;;;;35.95;26.80;;;;;;;10.73;100.00;102498.31;4987803;28;20046;-72
2023/11/22 01:21:56;;;;;;;43.25;29.27;;;;;;;10.75;100.00;102494.09;4987905;28;20027;-72
2023/11/22 01:24:22;;;;;;;37.47;27.27;;;;;;;10.62;100.00;102487.16;4988295;28;20023;-74
2023/11/22 01:26:47;;;;;;;40.28;27.35;;;;;;;10.21;100.00;102417.97;4988656;28;20056;-76
2023/11/22 01:29:12;;;;;;;38.22;27.35;;;;;;;10.20;100.00;102414.56;4971909;28;20034;-73
2023/11/22 01:31:39;;;;;;;38.83;27.35;;;;;;;10.22;100.00;102410.34;4992169;28;20519;-74
2023/11/22 01:34:05;;;;;;;36.85;27.13;;;;;;;10.20;100.00;102417.09;4992101;28;20030;-74
2023/11/22 01:36:31;;;;;;;37.20;26.45;;;;;;;10.32;100.00;102432.50;4991923;28;20041;-74
2023/11/22 01:38:57;;;;;;;36.88;26.70;;;;;;;10.50;100.00;102471.75;4991998;28;20405;-74
2023/11/22 01:41:22;;;;;;;40.25;28.88;;;;;;;10.01;100.00;102387.19;4991877;28;20075;-74
2023/11/22 01:43:48;;;;;;;38.20;27.27;;;;;;;10.46;100.00;102446.25;4990557;28;20030;-74
2023/11/22 01:46:24;;;;;;;37.85;28.13;;;;;;;10.16;100.00;102405.19;4974625;28;20026;-73
2023/11/22 01:48:52;;;;;;;37.90;27.95;;;;;;;10.68;100.00;102472.81;4991591;28;20054;-74
2023/11/22 01:51:22;;;;;;;41.10;28.95;;;;;;;10.52;100.00;102449.72;4991773;28;20034;-74
2023/11/22 01:53:53;;;;;;;38.85;27.05;;;;;;;10.59;100.00;102454.91;4991988;28;20489;-73
2023/11/22 01:56:20;;;;;;;41.95;28.63;;;;;;;10.38;100.00;102411.38;4973808;28;20026;-73
2023/11/22 01:58:46;;;;;;;40.03;27.55;;;;;;;9.93;100.00;102334.53;4991380;28;20045;-74
2023/11/22 02:01:12;;;;;;;36.05;27.02;;;;;;;10.12;100.00;102370.41;4990335;28;20030;-74
2023/11/22 02:03:39;;;;;;;38.60;27.67;;;;;;;10.25;100.00;102394.28;4991473;28;20515;-74
2023/11/22 02:06:06;;;;;;;39.17;27.27;;;;;;;10.03;100.00;102377.03;4990880;28;20031;-73
2023/11/22 02:08:31;;;;;;;37.80;27.85;;;;;;;10.38;100.00;102437.69;4985884;28;20034;-73
2023/11/22 02:10:59;;;;;;;38.17;26.90;;;;;;;10.40;100.00;102423.28;4991405;28;20034;-73
2023/11/22 02:13:24;;;;;;;35.92;27.08;;;;;;;9.57;100.00;102317.97;4991573;28;20416;-72
2023/11/22 02:15:50;;;;;;;34.17;25.30;;;;;;;10.01;100.00;102373.59;4991379;28;20042;-73
2023/11/22 02:18:16;;;;;;;35.53;25.38;;;;;;;9.78;100.00;102355.53;4990218;28;20046;-73
2023/11/22 02:20:42;;;;;;;36.75;25.60;;;;;;;10.20;100.00;102427.28;4990919;28;20042;-73
2023/11/22 02:23:11;;;;;;;37.70;26.23;;;;;;;9.86;100.00;102374.28;4991272;28;20041;-74
2023/11/22 02:25:37;;;;;;;33.25;24.65;;;;;;;10.20;100.00;102437.44;4973706;28;20030;-72
2023/11/22 02:28:03;;;;;;;30.50;23.25;;;;;;;10.17;100.00;102426.38;4973140;28;20440;-72
2023/11/22 02:30:29;;;;;;;34.67;24.83;;;;;;;10.35;100.00;102434.25;4990712;28;20033;-73
2023/11/22 02:32:54;;;;;;;31.25;23.00;;;;;;;9.45;100.00;102322.88;4990701;28;20030;-73
2023/11/22 02:35:20;;;;;;;31.63;23.88;;;;;;;9.80;100.00;102384.34;4991215;28;20028;-73
2023/11/22 02:37:47;;;;;;;32.63;24.50;;;;;;;10.14;100.00;102452.59;4990541;28;20496;-70
2023/11/22 02:40:20;;;;;;;32.58;24.23;;;;;;;10.34;100.00;102468.13;4991024;28;20428;-72
2023/11/22 02:42:53;;;;;;;30.73;23.27;;;;;;;9.95;100.00;102430.28;4990888;28;20077;-70
2023/11/22 02:45:24;;;;;;;33.35;24.80;;;;;;;9.77;100.00;102417.31;4989269;28;20064;-71
2023/11/22 02:47:50;;;;;;;36.20;26.30;;;;;;;9.80;100.00;102422.47;4973199;28;20030;-72
2023/11/22 02:50:16;;;;;;;36.78;26.83;;;;;;;9.87;100.00;102425.91;4973142;28;20042;-69
2023/11/22 02:52:42;;;;;;;36.28;26.20;;;;;;;10.00;100.00;102448.16;4990081;28;20088;-72
2023/11/22 02:55:11;;;;;;;38.30;27.60;;;;;;;9.98;100.00;102449.81;4990130;28;20026;-73
2023/11/22 02:57:37;;;;;;;42.28;28.30;;;;;;;9.62;100.00;102368.84;4990407;28;20045;-72
2023/11/22 03:00:07;;;;;;;36.92;27.13;;;;;;;10.09;100.00;102431.34;4988633;28;20030;-73
2023/11/22 03:02:34;;;;;;;37.88;28.38;;;;;;;9.86;100.00;102381.91;4989752;28;20037;-71
2023/11/22 03:05:00;;;;;;;39.53;29.67;;;;;;;9.63;100.00;102337.53;4990079;28;20034;-73
2023/11/22 03:07:26;;;;;;;40.55;28.58;;;;;;;10.04;100.00;102394.81;4972695;28;20109;-72
2023/11/22 03:09:52;;;;;;;38.90;27.92;;;;;;;9.55;100.00;102331.47;4990403;28;20141;-72
2023/11/22 03:12:20;;;;;;;40.22;27.90;;;;;;;10.07;100.00;102405.03;4972216;28;20027;-70
2023/11/22 03:14:48;;;;;;;36.90;28.17;;;;;;;10.06;100.00;102405.03;4990302;28;20042;-73
2023/11/22 03:17:17;;;;;;;41.45;29.35;;;;;;;9.75;100.00;102354.63;4972844;28;20112;-73
2023/11/22 03:19:44;;;;;;;38.40;27.70;;;;;;;10.07;100.00;102420.28;4973129;28;20046;-73
2023/11/22 03:22:09;;;;;;;42.28;29.52;;;;;;;10.19;100.00;102439.97;4989810;28;20523;-73
2023/11/22 03:24:36;;;;;;;42.03;29.40;;;;;;;9.86;100.00;102376.81;4972724;28;20022;-73
2023/11/22 03:27:02;;;;;;;37.63;28.63;;;;;;;9.91;100.00;102392.97;4989799;28;20036;-69
2023/11/22 03:29:29;;;;;;;37.22;28.25;;;;;;;10.01;100.00;102414.25;4990439;28;20413;-73
2023/11/22 03:31:55;;;;;;;39.47;28.75;;;;;;;9.57;100.00;102337.44;4989084;28;20509;-70
2023/11/22 03:34:20;;;;;;;41.17;30.08;;;;;;;10.05;100.00;102447.38;4972556;28;20027;-72
2023/11/22 03:36:46;;;;;;;47.97;31.58;;;;;;;9.86;100.00;102393.75;4989849;28;20480;-73
2023/11/22 03:39:14;;;;;;;43.38;30.77;;;;;;;10.21;100.00;102441.72;4989849;28;20030;-72
2023/11/22 03:41:40;;;;;;;38.67;29.42;;;;;;;10.23;100.00;102452.75;4969726;28;20045;-70
2023/11/22 03:44:08;;;;;;;42.20;29.63;;;;;;;9.83;100.00;102422.50;4972195;28;20042;-72
2023/11/22 03:46:35;;;;;;;39.03;28.77;;;;;;;10.23;100.00;102485.81;4989658;28;20031;-72
2023/11/22 03:49:04;;;;;;;40.17;29.50;;;;;;;9.41;100.00;102358.34;4972157;28;20088;-72
2023/11/22 03:51:29;;;;;;;41.13;30.45;;;;;;;10.21;100.00;102512.03;4988543;28;20480;-71
2023/11/22 03:53:55;;;;;;;40.35;30.65;;;;;;;9.73;100.00;102453.66;4989009;28;20053;-69
2023/11/22 03:56:21;;;;;;;42.15;30.90;;;;;;;10.12;100.00;102538.16;4988065;28;20030;-72
2023/11/22 03:58:48;;;;;;;41.95;30.50;;;;;;;9.72;100.00;102482.47;4972040;28;20041;-72
2023/11/22 04:01:13;;;;;;;39.13;30.02;;;;;;;9.86;100.00;102531.81;4987925;28;20496;-73
2023/11/22 04:03:40;;;;;;;40.08;31.02;;;;;;;9.50;100.00;102485.47;4988806;28;20030;-72
2023/11/22 04:06:06;;;;;;;36.00;27.67;;;;;;;9.90;100.00;102523.41;4970431;28;20033;-72
2023/11/22 04:08:31;;;;;;;40.92;30.05;;;;;;;9.66;100.00;102507.75;4970416;28;20465;-72
2023/11/22 04:10:57;;;;;;;47.38;32.42;;;;;;;9.99;100.00;102560.78;4988341;28;20046;-73
2023/11/22 04:13:24;;;;;;;44.33;31.48;;;;;;;10.15;100.00;102590.75;4971638;28;20440;-71
2023/11/22 04:15:50;;;;;;;51.45;33.38;;;;;;;9.26;100.00;102464.72;4971738;28;20034;-72
2023/11/22 04:18:16;;;;;;;39.78;29.15;;;;;;;9.89;100.00;102566.53;4988425;28;20057;-74
2023/11/22 04:20:42;;;;;;;38.63;27.20;;;;;;;9.48;100.00;102521.00;4988293;28;20057;-71
2023/11/22 04:23:10;;;;;;;39.83;27.75;;;;;;;9.89;100.00;102544.53;4971791;28;20044;-71
2023/11/22 04:25:40;;;;;;;40.83;30.00;;;;;;;9.89;100.00;102528.44;4988749;28;20478;-72
2023/11/22 04:28:08;;;;;;;42.80;29.52;;;;;;;9.49;100.00;102494.75;4987140;28;20412;-71
2023/11/22 04:30:34;;;;;;;45.97;31.15;;;;;;;9.46;100.00;102516.72;4986889;28;20030;-72
2023/11/22 04:32:59;;;;;;;40.95;30.15;;;;;;;10.25;100.00;102644.31;4989031;28;20037;-73
2023/11/22 04:35:25;;;;;;;45.88;31.95;;;;;;;10.11;100.00;102655.06;4987870;28;20109;-71
2023/11/22 04:37:50;;;;;;;40.35;29.30;;;;;;;9.67;100.00;102616.13;4987342;28;20038;-71
2023/11/22 04:40:17;;;;;;;42.85;29.40;;;;;;;9.73;100.00;102601.00;4987841;28;20034;-71
2023/11/22 04:42:43;;;;;;;39.65;28.67;;;;;;;9.75;100.00;102655.22;4971273;28;20038;-73
2023/11/22 04:45:09;;;;;;;35.53;27.92;;;;;;;9.56;100.00;102615.97;4988536;28;20506;-72
2023/11/22 04:47:35;;;;;;;40.25;28.90;;;;;;;9.79;100.00;102669.72;4969929;28;20489;-72
2023/11/22 04:50:00;;;;;;;37.58;27.42;;;;;;;9.35;100.00;102582.53;4988262;28;20036;-71
2023/11/22 04:52:26;;;;;;;35.08;26.60;;;;;;;9.96;100.00;102659.88;4987869;28;20033;-70
2023/11/22 04:54:51;;;;;;;37.55;26.88;;;;;;;9.90;100.00;102664.84;4970803;28;20030;-73
2023/11/22 04:57:17;;;;;;;36.50;26.08;;;;;;;9.56;100.00;102625.25;4987530;28;20034;-71
2023/11/22 04:59:42;;;;;;;38.65;27.20;;;;;;;9.99;100.00;102703.97;4969350;28;20064;-71
2023/11/22 05:02:08;;;;;;;36.22;27.45;;;;;;;9.74;100.00;102667.91;4988133;28;20034;-74
2023/11/22 05:04:33;;;;;;;34.90;27.20;;;;;;;10.13;100.00;102750.88;4972937;28;20026;-72
2023/11/22 05:06:59;;;;;;;39.83;28.73;;;;;;;10.09;100.00;102759.22;4975241;28;20034;-76
2023/11/22 05:09:24;;;;;;;35.65;26.65;;;;;;;9.71;100.00;102711.88;4991830;28;20412;-73
2023/11/22 05:11:51;;;;;;;36.97;27.40;;;;;;;10.13;100.00;102793.22;4991267;28;20034;-74
2023/11/22 05:14:17;;;;;;;37.60;26.80;;;;;;;10.17;100.00;102797.53;4991600;28;20416;-73
2023/11/22 05:16:43;;;;;;;36.55;27.77;;;;;;;9.69;100.00;102722.84;4991859;28;20030;-73
2023/11/22 05:19:08;;;;;;;37.47;28.00;;;;;;;9.92;100.00;102773.31;4992025;28;20049;-73
2023/11/22 05:21:33;;;;;;;37.20;26.83;;;;;;;10.14;100.00;102803.41;4991880;28;20132;-74
2023/11/22 05:23:59;;;;;;;34.13;27.20;;;;;;;10.43;100.00;102876.06;4992384;28;20026;-74
2023/11/22 05:26:25;;;;;;;37.72;28.48;;;;;;;10.46;100.00;102886.28;4992742;28;20045;-74
2023/11/22 05:28:53;;;;;;;39.00;28.50;;;;;;;10.32;100.00;102892.78;4991507;28;20031;-72
2023/11/22 05:31:20;;;;;;;35.53;27.10;;;;;;;10.10;100.00;102864.34;4992597;28;20038;-73
2023/11/22 05:33:45;;;;;;;36.67;26.92;;;;;;;10.51;100.00;102931.28;4991840;28;20041;-72
2023/11/22 05:36:11;;;;;;;34.17;26.48;;;;;;;10.10;100.00;102874.53;4991823;28;20038;-75
2023/11/22 05:38:38;;;;;;;38.10;28.80;;;;;;;10.29;100.00;102924.91;4990888;28;20053;-73
2023/11/22 05:41:03;;;;;;;36.33;26.63;;;;;;;10.24;100.00;102921.44;4974115;28;20104;-78
2023/11/22 05:43:28;;;;;;;36.92;27.75;;;;;;;10.21;100.00;102942.56;4992260;28;20030;-76
2023/11/22 05:45:54;;;;;;;33.25;26.25;;;;;;;10.71;100.00;103029.25;4990624;28;20042;-77
2023/11/22 05:48:19;;;;;;;36.80;28.27;;;;;;;10.62;100.00;103026.53;4991937;28;20088;-73
2023/11/22 05:50:46;;;;;;;43.97;30.33;;;;;;;10.25;100.00;102985.03;4974269;28;20045;-73
2023/11/22 05:53:12;;;;;;;39.33;29.15;;;;;;;10.64;100.00;103066.41;4990796;28;20035;-73
2023/11/22 05:55:38;;;;;;;45.33;35.25;;;;;;;10.25;100.00;103023.16;4991923;28;20113;-72
2023/11/22 05:58:04;;;;;;;70.35;52.80;;;;;;;10.68;100.00;103101.28;4991228;28;20034;-71
2023/11/22 06:00:30;;;;;;;60.05;45.25;;;;;;;10.60;100.00;103081.59;4990354;28;20513;-74
2023/11/22 06:02:55;;;;;;;57.25;42.20;;;;;;;10.35;100.00;103065.78;4991326;28;20141;-75
2023/11/22 06:05:21;;;;;;;54.83;42.58;;;;;;;10.29;100.00;103042.75;4991304;28;20037;-74
2023/11/22 06:07:47;;;;;;;52.55;41.42;;;;;;;10.30;100.00;103036.81;4991469;28;20061;-74
2023/11/22 06:10:14;;;;;;;48.80;37.35;;;;;;;10.20;100.00;103029.81;4990873;28;20424;-74
2023/11/22 06:12:39;;;;;;;60.55;43.03;;;;;;;10.08;100.00;103021.88;4991199;28;20026;-74
2023/11/22 06:15:05;;;;;;;50.97;37.78;;;;;;;10.27;100.00;103039.31;4991029;28;20045;-74
2023/11/22 06:17:31;;;;;;;48.65;35.95;;;;;;;10.31;100.00;103065.66;4973598;28;20117;-74
2023/11/22 06:19:56;;;;;;;61.45;43.58;;;;;;;10.07;100.00;103039.63;4990961;28;20034;-71
2023/11/22 06:22:22;;;;;;;69.68;49.90;;;;;;;10.06;100.00;103048.09;4990830;28;20041;-72
2023/11/22 06:24:47;;;;;;;63.22;47.22;;;;;;;10.24;100.00;103074.84;4973812;28;20469;-73
2023/11/22 06:27:15;;;;;;;54.55;37.35;;;;;;;10.36;100.00;103100.56;4991340;28;20037;-73
2023/11/22 06:29:43;;;;;;;44.58;33.40;;;;;;;10.35;100.00;103103.94;4990750;28;20117;-73
2023/11/22 06:32:09;;;;;;;44.53;31.60;;;;;;;10.29;100.00;103087.66;4991215;28;20110;-74
2023/11/22 06:34:36;;;;;;;46.65;32.95;;;;;;;10.63;100.00;103160.53;4991030;28;20575;-73
2023/11/22 06:37:01;;;;;;;52.00;34.65;;;;;;;10.71;100.00;103170.06;4973903;28;20425;-70
2023/11/22 06:39:27;;;;;;;43.45;31.92;;;;;;;10.69;100.00;103151.38;4990695;28;20026;-73
2023/11/22 06:41:52;;;;;;;38.28;29.40;;;;;;;10.58;100.00;103149.41;4991110;28;20044;-73
2023/11/22 06:44:18;;;;;;;37.08;28.63;;;;;;;10.24;100.00;103100.25;4990828;28;20044;-73
2023/11/22 06:46:44;;;;;;;40.78;29.58;;;;;;;10.68;100.00;103164.03;4973420;28;20030;-73
2023/11/22 06:49:09;;;;;;;42.08;30.98;;;;;;;10.65;100.00;103147.03;4973326;28;20030;-74
2023/11/22 06:51:34;;;;;;;45.28;32.28;;;;;;;10.75;100.00;103163.34;4990696;28;20033;-74
2023/11/22 06:54:00;;;;;;;46.10;33.95;;;;;;;10.77;100.00;103174.44;4978531;28;20523;-71
2023/11/22 06:56:25;;;;;;;48.70;32.67;;;;;;;10.98;100.00;103190.19;4990174;28;20058;-73
2023/11/22 06:58:51;;;;;;;43.05;33.38;;;;;;;10.84;100.00;103177.16;4990113;28;20054;-72
2023/11/22 07:01:16;;;;;;;47.95;35.03;;;;;;;10.98;100.00;103200.34;4990377;28;20473;-72
2023/11/22 07:03:42;;;;;;;50.33;35.10;;;;;;;11.20;100.00;103240.75;4990932;28;20480;-73
2023/11/22 07:06:08;;;;;;;46.58;34.67;;;;;;;11.10;100.00;103242.25;4990409;28;20034;-73
2023/11/22 07:08:34;;;;;;;47.78;34.72;;;;;;;11.14;100.00;103222.78;4990245;28;20026;-73
2023/11/22 07:11:00;;;;;;;43.85;32.70;;;;;;;10.99;100.00;103208.03;4990430;28;20054;-74
2023/11/22 07:13:26;;;;;;;38.65;29.48;;;;;;;11.23;100.00;103249.31;4971641;28;20450;-73
2023/11/22 07:15:53;;;;;;;36.95;28.05;;;;;;;10.86;100.00;103190.78;4990521;28;20034;-73
2023/11/22 07:18:19;;;;;;;39.10;29.00;;;;;;;10.80;100.00;103172.81;4989608;28;20058;-71
2023/11/22 07:20:48;;;;;;;33.25;27.20;;;;;;;11.18;100.00;103244.97;4989687;28;20468;-72
2023/11/22 07:23:13;;;;;;;42.17;28.20;;;;;;;10.71;100.00;103161.56;4990118;28;20030;-74
2023/11/22 07:25:41;;;;;;;36.17;28.05;;;;;;;11.50;100.00;103294.94;4990234;28;20030;-74
2023/11/22 07:28:07;;;;;;;40.38;29.17;;;;;;;11.70;100.00;103324.28;4988940;28;20034;-74
2023/11/22 07:30:33;;;;;;;35.75;28.55;;;;;;;11.71;100.00;103330.22;4989873;28;20033;-73
2023/11/22 07:32:59;;;;;;;41.15;27.08;;;;;;;11.52;100.00;103282.22;4989858;28;20034;-74
2023/11/22 07:35:27;;;;;;;36.88;26.25;;;;;;;12.06;100.00;103370.94;4990095;28;20576;-73
2023/11/22 07:37:54;;;;;;;34.60;27.58;;;;;;;12.24;100.00;103397.69;4989572;28;20041;-71
2023/11/22 07:40:22;;;;;;;32.03;26.42;;;;;;;12.02;100.00;103364.06;4989886;28;20058;-74
2023/11/22 07:42:47;;;;;;;34.55;26.63;;;;;;;12.15;100.00;103367.72;4971970;28;20033;-72
2023/11/22 07:45:13;;;;;;;32.25;26.77;;;;;;;12.42;100.00;103421.03;4989779;28;20026;-73
2023/11/22 07:47:43;;;;;;;35.40;28.77;;;;;;;11.91;100.00;103324.75;4988709;28;20032;-73
2023/11/22 07:50:11;;;;;;;36.65;27.90;;;;;;;12.30;100.00;103365.47;4989898;28;20480;-71
2023/11/22 07:52:37;;;;;;;35.65;29.23;;;;;;;12.51;100.00;103405.88;4989048;28;20042;-73
2023/11/22 07:55:07;;;;;;;39.40;30.33;;;;;;;12.32;100.00;103338.28;4989399;28;20034;-74
2023/11/22 07:57:36;;;;;;;43.42;35.55;;;;;;;12.47;100.00;103353.03;4989691;28;20054;-73
2023/11/22 08:00:06;;;;;;;43.78;35.17;;;;;;;12.52;100.00;103348.91;4988170;28;20096;-72
2023/11/22 08:02:33;;;;;;;38.60;31.63;;;;;;;12.18;100.00;103289.56;4988843;28;20109;-73
2023/11/22 08:05:01;;;;;;;35.85;29.08;;;;;;;12.21;100.00;103281.13;4971617;28;20088;-73
2023/11/22 08:07:27;;;;;;;45.63;35.83;;;;;;;12.63;100.00;103347.41;4989390;28;20042;-74
2023/11/22 08:09:53;;;;;;;37.50;31.20;;;;;;;12.16;100.00;103258.06;4987991;28;20026;-74
2023/11/22 08:12:19;;;;;;;32.63;26.67;;;;;;;12.29;100.00;103242.97;4987971;28;20425;-74
2023/11/22 08:14:45;;;;;;;33.08;25.02;;;;;;;12.56;100.00;103291.94;4988415;28;20042;-73
2023/11/22 08:17:11;;;;;;;31.60;23.65;;;;;;;12.29;100.00;103236.19;4987545;28;20065;-74
2023/11/22 08:19:39;;;;;;;32.65;25.17;;;;;;;12.70;100.00;103305.81;4989100;28;20034;-73
2023/11/22 08:22:05;;;;;;;32.30;23.88;;;;;;;12.64;100.00;103288.69;4988597;28;20122;-71
2023/11/22 08:24:32;;;;;;;37.33;29.23;;;;;;;12.34;100.00;103224.34;4987994;28;20113;-73
2023/11/22 08:26:58;;;;;;;43.55;33.03;;;;;;;12.91;100.00;103306.19;4989091;28;20030;-72
2023/11/22 08:29:24;;;;;;;36.00;25.00;;;;;;;12.54;100.00;103240.88;4988871;28;20030;-73
2023/11/22 08:31:50;;;;;;;30.33;24.23;;;;;;;12.72;100.00;103253.06;4971390;28;20067;-71
2023/11/22 08:34:16;;;;;;;30.17;23.75;;;;;;;12.40;100.00;103196.38;4988834;28;20033;-73
2023/11/22 08:36:42;;;;;;;32.35;23.90;;;;;;;12.58;100.00;103232.44;4987353;28;20034;-69
2023/11/22 08:39:08;;;;;;;39.53;29.25;;;;;;;12.38;100.00;103181.91;4988649;28;20420;-73
2023/11/22 08:41:33;;;;;;;34.13;24.38;;;;;;;12.91;100.00;103260.19;4971413;28;20035;-72
2023/11/22 08:44:00;;;;;;;33.53;24.27;;;;;;;12.80;100.00;103236.19;4988714;28;20026;-73
2023/11/22 08:46:26;;;;;;;32.95;23.98;;;;;;;13.01;100.00;103260.34;4988942;28;20026;-72
2023/11/22 08:48:51;;;;;;;30.67;24.15;;;;;;;13.08;100.00;103269.00;4987133;28;20064;-74
2023/11/22 08:51:17;;;;;;;32.05;25.90;;;;;;;12.78;100.00;103222.53;4969582;28;20034;-73
2023/11/22 08:53:46;;;;;;;39.78;28.75;;;;;;;12.79;100.00;103217.47;4988684;28;20484;-73
2023/11/22 08:56:12;;;;;;;34.15;26.63;;;;;;;13.25;100.00;103284.59;4988589;28;20030;-72
2023/11/22 08:58:38;;;;;;;33.50;26.60;;;;;;;13.00;100.00;103233.09;4988914;28;20027;-73
2023/11/22 09:01:05;;;;;;;32.83;26.27;;;;;;;13.39;100.00;103260.09;4970520;28;20041;-72
2023/11/22 09:03:31;;;;;;;33.95;28.20;;;;;;;13.38;100.00;103274.56;4988660;28;20030;-73
2023/11/22 09:05:57;;;;;;;32.45;22.13;;;;;;;13.28;100.00;103254.81;4986671;28;20087;-72
2023/11/22 09:08:23;;;;;;;27.13;21.42;;;;;;;13.08;100.00;103210.25;4988732;28;20103;-73
2023/11/22 09:10:48;;;;;;;29.25;21.65;;;;;;;13.21;100.00;103222.34;4970725;28;20481;-74
2023/11/22 09:13:16;;;;;;;29.30;21.40;;;;;;;13.24;100.00;103212.16;4988134;28;20031;-73
2023/11/22 09:15:44;;;;;;;31.10;21.38;;;;;;;13.30;100.00;103209.69;4988395;28;20038;-74
2023/11/22 09:18:10;;;;;;;29.15;21.65;;;;;;;13.24;100.00;103219.84;4988709;28;20058;-74
2023/11/22 09:20:35;;;;;;;28.40;21.45;;;;;;;13.29;100.00;103213.06;4985794;28;20501;-74
2023/11/22 09:23:01;;;;;;;29.63;20.55;;;;;;;13.25;100.00;103213.88;4988489;28;20026;-73
2023/11/22 09:25:30;;;;;;;25.52;20.38;;;;;;;13.50;100.00;103243.19;4988384;28;20033;-73
2023/11/22 09:27:59;;;;;;;27.60;20.65;;;;;;;13.47;100.00;103212.47;4988176;28;20031;-72
2023/11/22 09:30:35;;;;;;;24.52;19.67;;;;;;;13.45;100.00;103220.09;4986963;28;20136;-73
2023/11/22 09:33:12;;;;;;;25.98;20.58;;;;;;;13.44;100.00;103204.75;4988103;28;20081;-73
2023/11/22 09:35:38;;;;;;;25.33;18.13;;;;;;;13.19;100.00;103160.16;4987513;28;20110;-74
2023/11/22 09:38:11;;;;;;;25.25;20.00;;;;;;;13.13;100.00;103136.22;4985280;28;20492;-73
2023/11/22 09:40:42;;;;;;;24.98;19.38;;;;;;;13.50;100.00;103185.25;4988218;28;20034;-74
2023/11/22 09:43:08;;;;;;;27.63;20.02;;;;;;;13.14;100.00;103120.91;4988058;28;20026;-73
2023/11/22 09:45:35;;;;;;;26.17;20.33;;;;;;;13.29;100.00;103131.28;4970701;28;20050;-73
2023/11/22 09:48:02;;;;;;;28.17;21.40;;;;;;;13.57;100.00;103164.00;4986915;28;20062;-74
2023/11/22 09:50:43;;;;;;;30.55;20.67;;;;;;;13.33;100.00;103150.94;4979952;28;20519;-73
2023/11/22 09:53:19;;;;;;;30.30;23.92;;;;;;;13.42;100.00;103143.41;4991618;28;20046;-74
2023/11/22 09:55:45;;;;;;;27.95;21.48;;;;;;;13.02;100.00;103082.41;4992011;28;20040;-74
2023/11/22 09:58:12;;;;;;;32.65;22.95;;;;;;;13.33;100.00;103107.50;4979289;28;20151;-74
2023/11/22 10:00:41;;;;;;;31.70;24.33;;;;;;;12.90;100.00;103047.38;4990711;28;20030;-74
2023/11/22 10:03:07;;;;;;;30.73;23.83;;;;;;;13.28;100.00;103093.81;4991285;28;20030;-72
2023/11/22 10:05:33;;;;;;;35.50;26.05;;;;;;;13.22;100.00;103086.09;4991717;28;20037;-74
2023/11/22 10:07:59;;;;;;;31.40;26.00;;;;;;;12.94;100.00;103027.81;4991484;28;20023;-75
2023/11/22 10:10:26;;;;;;;33.92;27.48;;;;;;;13.39;100.00;103102.44;4302723;28;10000883;-75
2023/11/22 10:13:01;;;;;;;33.13;26.55;;;;;;;13.40;100.00;103083.72;5006135;28;20107;-75
2023/11/22 10:15:28;;;;;;;36.55;27.92;;;;;;;13.36;100.00;103089.66;5004349;28;20050;-76
2023/11/22 10:18:00;;;;;;;35.72;27.77;;;;;;;13.23;100.00;103048.63;4989230;28;20120;-72
2023/11/22 10:20:36;;;;;;;38.72;30.08;;;;;;;13.29;100.00;103057.19;4988855;28;20030;-74
2023/11/22 10:23:02;;;;;;;39.35;30.95;;;;;;;13.24;100.00;103053.75;5004775;28;20161;-74
2023/11/22 10:25:29;;;;;;;40.53;31.63;;;;;;;12.92;100.00;102992.06;5006010;28;20038;-73
2023/11/22 10:27:54;;;;;;;46.25;34.47;;;;;;;13.17;100.00;103017.91;5003823;28;20034;-72
2023/11/22 10:30:20;;;;;;;44.80;33.35;;;;;;;13.14;100.00;103023.81;4997663;28;20042;-75
2023/11/22 10:32:46;;;;;;;44.53;32.17;;;;;;;13.17;100.00;103033.22;5006475;28;20046;-75
2023/11/22 10:35:14;;;;;;;40.58;31.77;;;;;;;13.56;100.00;103102.63;4988452;28;20430;-75
2023/11/22 10:37:44;;;;;;;38.75;31.23;;;;;;;13.52;100.00;103095.78;5004104;28;20133;-73
2023/11/22 10:40:12;;;;;;;40.20;30.75;;;;;;;13.27;100.00;103045.25;5002058;28;20563;-71
2023/11/22 10:42:42;;;;;;;40.63;31.05;;;;;;;13.08;100.00;103018.66;4997145;28;20080;-73
2023/11/22 10:45:08;;;;;;;38.08;29.65;;;;;;;13.23;100.00;103043.50;4987027;28;20026;-73
2023/11/22 10:47:39;;;;;;;36.90;28.58;;;;;;;13.23;100.00;103046.91;4991272;28;20069;-75
2023/11/22 10:50:08;;;;;;;34.47;26.50;;;;;;;13.75;100.00;103130.09;4991846;28;20030;-78
2023/11/22 10:52:36;;;;;;;39.03;29.90;;;;;;;13.58;100.00;103104.38;4991871;28;20401;-73
2023/11/22 10:55:04;;;;;;;41.08;30.98;;;;;;;13.34;100.00;103072.56;4991598;28;20038;-77
2023/11/22 10:57:41;;;;;;;42.92;32.67;;;;;;;13.28;100.00;103067.41;4992295;28;20756;-74
2023/11/22 11:00:11;;;;;;;47.83;33.75;;;;;;;13.54;100.00;103117.97;4988588;28;20034;-74